createdAt,value
2023-04-28T00:00:09.759Z,12.40
2023-04-28T00:02:55.150Z,12.40
2023-04-28T00:05:41.201Z,12.40
2023-04-28T00:08:27.266Z,12.40
2023-04-28T00:11:12.577Z,12.40
2023-04-28T00:13:57.841Z,12.30
2023-04-28T00:16:43.361Z,12.40
2023-04-28T00:19:29.073Z,12.40
2023-04-28T00:22:15.172Z,12.30
2023-04-28T00:25:00.563Z,12.40
2023-04-28T00:27:45.831Z,12.40
2023-04-28T00:30:31.612Z,12.40
2023-04-28T00:33:16.727Z,12.40
2023-04-28T00:36:02.093Z,12.40
2023-04-28T00:38:47.498Z,12.40
2023-04-28T00:41:34.776Z,12.50
2023-04-28T00:44:19.763Z,12.40
2023-04-28T00:47:05.623Z,12.40
2023-04-28T00:49:50.704Z,12.40
2023-04-28T00:52:38.250Z,12.40
2023-04-28T00:55:26.312Z,12.50
2023-04-28T00:58:11.304Z,12.40
2023-04-28T01:01:07.978Z,12.40
2023-04-28T01:03:53.689Z,12.40
2023-04-28T01:06:39.762Z,12.40
2023-04-28T01:09:25.327Z,12.40
2023-04-28T01:12:10.705Z,12.40
2023-04-28T01:14:56.194Z,12.40
2023-04-28T01:17:41.654Z,12.40
2023-04-28T01:20:26.776Z,12.40
2023-04-28T01:23:16.577Z,12.40
2023-04-28T01:26:01.866Z,12.40
2023-04-28T01:28:47.264Z,12.40
2023-04-28T01:31:32.527Z,12.30
2023-04-28T01:34:18.200Z,12.30
2023-04-28T01:37:03.894Z,12.40
2023-04-28T01:39:49.267Z,12.40
2023-04-28T01:42:34.725Z,12.40
2023-04-28T01:45:20.138Z,12.40
2023-04-28T01:48:05.750Z,12.40
2023-04-28T01:50:50.960Z,12.40
2023-04-28T01:53:36.240Z,12.40
2023-04-28T01:56:21.744Z,12.40
2023-04-28T01:59:07.238Z,12.40
2023-04-28T02:01:52.546Z,12.40
2023-04-28T02:04:39.025Z,12.30
2023-04-28T02:07:24.398Z,12.30
2023-04-28T02:10:10.153Z,12.30
2023-04-28T02:12:55.260Z,12.30
2023-04-28T02:15:44.222Z,12.40
2023-04-28T02:18:29.686Z,12.30
2023-04-28T02:21:14.961Z,12.40
2023-04-28T02:24:00.456Z,12.30
2023-04-28T02:26:45.896Z,12.30
2023-04-28T02:29:31.873Z,12.30
2023-04-28T02:32:17.083Z,12.30
2023-04-28T02:35:02.407Z,12.10
2023-04-28T02:37:47.964Z,12.10
2023-04-28T02:40:33.249Z,12.20
2023-04-28T02:43:19.381Z,12.20
2023-04-28T02:46:05.245Z,12.30
2023-04-28T02:48:50.472Z,12.10
2023-04-28T02:51:35.917Z,12.20
2023-04-28T02:54:27.581Z,12.10
2023-04-28T02:57:12.509Z,12.20
2023-04-28T02:59:57.874Z,12.20
2023-04-28T03:02:43.250Z,12.20
2023-04-28T03:05:28.560Z,12.10
2023-04-28T03:08:14.126Z,11.90
2023-04-28T03:10:59.479Z,12.10
2023-04-28T03:13:44.890Z,11.90
2023-04-28T03:16:30.319Z,11.90
2023-04-28T03:19:15.888Z,11.80
2023-04-28T03:22:01.440Z,11.70
2023-04-28T03:24:46.800Z,11.70
2023-04-28T03:27:32.215Z,11.60
2023-04-28T03:30:17.635Z,11.70
2023-04-28T03:33:02.993Z,11.60
2023-04-28T03:35:48.396Z,11.60
2023-04-28T03:38:33.735Z,11.80
2023-04-28T03:41:19.113Z,11.80
2023-04-28T03:44:05.592Z,11.80
2023-04-28T03:46:51.102Z,11.80
2023-04-28T03:49:36.514Z,11.80
2023-04-28T03:52:21.836Z,11.80
2023-04-28T03:55:07.464Z,11.80
2023-04-28T03:57:53.140Z,11.60
2023-04-28T04:00:38.262Z,11.60
2023-04-28T04:03:26.485Z,11.50
2023-04-28T04:06:12.561Z,11.50
2023-04-28T04:08:57.722Z,11.60
2023-04-28T04:11:43.133Z,11.60
2023-04-28T04:14:28.533Z,11.60
2023-04-28T04:17:14.011Z,11.50
2023-04-28T04:19:59.442Z,11.50
2023-04-28T04:22:44.797Z,11.50
2023-04-28T04:25:32.279Z,11.50
2023-04-28T04:28:17.503Z,11.40
2023-04-28T04:31:03.449Z,11.50
2023-04-28T04:33:48.806Z,11.60
2023-04-28T04:36:34.007Z,11.70
2023-04-28T04:39:19.293Z,11.60
2023-04-28T04:42:16.849Z,11.60
2023-04-28T04:45:09.428Z,11.60
2023-04-28T04:47:54.809Z,11.60
2023-04-28T04:50:41.084Z,11.50
2023-04-28T04:53:26.750Z,11.50
2023-04-28T04:56:12.225Z,11.70
2023-04-28T04:58:57.883Z,11.70
2023-04-28T05:01:43.417Z,11.70
2023-04-28T05:04:29.090Z,11.70
2023-04-28T05:07:14.644Z,11.70
2023-04-28T05:10:00.565Z,11.70
2023-04-28T05:12:48.335Z,11.50
2023-04-28T05:15:34.792Z,11.70
2023-04-28T05:18:20.144Z,11.80
2023-04-28T05:21:06.362Z,11.60
2023-04-28T05:23:52.453Z,11.50
2023-04-28T05:26:37.829Z,11.50
2023-04-28T05:29:23.282Z,11.50
2023-04-28T05:32:08.659Z,11.70
2023-04-28T05:34:53.898Z,11.70
2023-04-28T05:37:40.030Z,11.90
2023-04-28T05:40:26.334Z,12.00
2023-04-28T05:43:12.039Z,12.10
2023-04-28T05:45:57.341Z,12.00
2023-04-28T05:48:42.751Z,11.90
2023-04-28T05:51:28.408Z,11.90
2023-04-28T05:54:13.865Z,11.90
2023-04-28T05:57:01.317Z,12.00
2023-04-28T05:59:47.036Z,11.90
2023-04-28T06:02:32.632Z,11.90
2023-04-28T06:05:18.251Z,12.00
2023-04-28T06:08:03.790Z,12.00
2023-04-28T06:10:49.253Z,12.00
2023-04-28T06:13:34.600Z,12.10
2023-04-28T06:16:20.331Z,12.10
2023-04-28T06:19:05.967Z,12.00
2023-04-28T06:21:52.680Z,12.00
2023-04-28T06:24:38.069Z,11.80
2023-04-28T06:27:23.434Z,11.80
2023-04-28T06:30:09.243Z,11.80
2023-04-28T06:32:56.075Z,11.90
2023-04-28T06:35:41.478Z,11.90
2023-04-28T06:38:27.262Z,11.90
2023-04-28T06:41:12.443Z,11.90
2023-04-28T06:43:57.702Z,11.80
2023-04-28T06:46:43.205Z,11.80
2023-04-28T06:49:28.405Z,11.90
2023-04-28T06:52:14.671Z,12.00
2023-04-28T06:54:59.708Z,12.20
2023-04-28T06:57:45.143Z,12.10
2023-04-28T07:00:30.784Z,12.20
2023-04-28T07:03:16.055Z,12.20
2023-04-28T07:06:01.384Z,12.10
2023-04-28T07:08:46.877Z,12.10
2023-04-28T07:11:33.464Z,12.10
2023-04-28T07:14:18.954Z,12.10
2023-04-28T07:17:04.164Z,12.00
2023-04-28T07:19:50.912Z,12.10
2023-04-28T07:22:36.701Z,12.10
2023-04-28T07:25:22.129Z,12.20
2023-04-28T07:28:08.051Z,12.20
2023-04-28T07:30:53.055Z,12.20
2023-04-28T07:33:38.362Z,12.30
2023-04-28T07:36:23.727Z,12.50
2023-04-28T07:39:09.106Z,12.50
2023-04-28T07:41:54.574Z,12.50
2023-04-28T07:44:40.106Z,12.60
2023-04-28T07:47:25.504Z,12.60
2023-04-28T07:50:12.192Z,12.60
2023-04-28T07:52:59.055Z,12.60
2023-04-28T07:55:45.823Z,12.50
2023-04-28T07:58:31.594Z,12.40
2023-04-28T08:01:16.851Z,12.40
2023-04-28T08:04:02.505Z,12.10
2023-04-28T08:06:47.636Z,12.10
2023-04-28T08:09:33.153Z,11.90
2023-04-28T08:12:18.611Z,12.00
2023-04-28T08:15:04.509Z,11.80
2023-04-28T08:17:49.976Z,11.80
2023-04-28T08:20:35.288Z,11.80
2023-04-28T08:23:21.338Z,11.90
2023-04-28T08:26:06.657Z,11.90
2023-04-28T08:28:52.823Z,11.80
2023-04-28T08:31:38.586Z,11.90
2023-04-28T08:34:23.862Z,11.90
2023-04-28T08:37:09.184Z,11.90
2023-04-28T08:40:01.928Z,11.90
2023-04-28T08:42:47.424Z,11.90
2023-04-28T08:45:41.135Z,11.90
2023-04-28T08:48:27.935Z,11.80
2023-04-28T08:51:25.698Z,11.90
2023-04-28T08:54:25.590Z,11.90
2023-04-28T08:57:12.696Z,11.90
2023-04-28T08:59:59.030Z,12.10
2023-04-28T09:02:44.569Z,12.10
2023-04-28T09:05:30.646Z,12.10
2023-04-28T09:08:15.980Z,12.00
2023-04-28T09:11:09.247Z,12.00
2023-04-28T09:14:12.509Z,11.90
2023-04-28T09:16:57.759Z,11.80
2023-04-28T09:19:43.560Z,11.70
2023-04-28T09:22:29.472Z,11.90
2023-04-28T09:25:16.060Z,12.00
2023-04-28T09:28:21.983Z,12.20
2023-04-28T09:31:23.796Z,12.20
2023-04-28T09:34:09.217Z,12.30
2023-04-28T09:36:54.653Z,12.40
2023-04-28T09:39:40.007Z,12.40
2023-04-28T09:42:36.359Z,12.30
2023-04-28T09:45:21.477Z,12.30
2023-04-28T09:48:13.111Z,12.40
2023-04-28T09:50:59.607Z,12.40
2023-04-28T09:53:45.473Z,12.20
2023-04-28T09:56:32.258Z,12.30
2023-04-28T09:59:17.889Z,12.10
2023-04-28T10:02:17.310Z,12.20
2023-04-28T10:05:11.612Z,12.30
2023-04-28T10:08:00.172Z,12.20
2023-04-28T10:10:45.864Z,12.40
2023-04-28T10:13:32.575Z,12.50
2023-04-28T10:16:18.508Z,12.60
2023-04-28T10:19:05.274Z,12.60
2023-04-28T10:22:03.990Z,12.40
2023-04-28T10:25:11.827Z,12.30
2023-04-28T10:27:59.411Z,12.30
2023-04-28T10:31:13.728Z,12.40
2023-04-28T10:34:22.297Z,12.40
2023-04-28T10:37:07.676Z,12.60
2023-04-28T10:40:31.815Z,12.80
2023-04-28T10:43:26.492Z,12.80
2023-04-28T10:46:12.007Z,12.90
2023-04-28T10:48:57.596Z,12.90
2023-04-28T10:51:42.696Z,13.00
2023-04-28T10:54:28.310Z,13.00
2023-04-28T10:57:18.175Z,13.00
2023-04-28T11:00:40.003Z,12.90
2023-04-28T11:04:13.366Z,12.90
2023-04-28T11:07:14.522Z,12.90
2023-04-28T11:09:59.655Z,13.00
2023-04-28T11:13:24.419Z,12.90
2023-04-28T11:16:09.894Z,13.00
2023-04-28T11:19:03.856Z,12.90
2023-04-28T11:21:49.655Z,12.80
2023-04-28T11:24:34.947Z,12.90
2023-04-28T11:27:25.206Z,12.90
2023-04-28T11:30:31.232Z,12.80
2023-04-28T11:33:16.940Z,12.90
2023-04-28T11:36:02.257Z,13.00
2023-04-28T11:38:49.018Z,13.00
2023-04-28T11:41:36.125Z,13.00
2023-04-28T11:44:25.024Z,13.00
2023-04-28T11:47:10.339Z,13.10
2023-04-28T11:49:55.704Z,13.00
2023-04-28T11:52:53.270Z,13.00
2023-04-28T11:55:39.280Z,12.90
2023-04-28T11:58:25.298Z,13.00
2023-04-28T12:01:12.136Z,12.90
2023-04-28T12:03:57.564Z,13.00
2023-04-28T12:06:43.081Z,12.80
2023-04-28T12:09:28.234Z,12.90
2023-04-28T12:12:18.346Z,13.00
2023-04-28T12:15:08.146Z,13.00
2023-04-28T12:17:53.361Z,13.10
2023-04-28T12:20:39.489Z,13.10
2023-04-28T12:23:34.864Z,13.10
2023-04-28T12:26:26.552Z,13.10
2023-04-28T12:29:35.402Z,13.10
2023-04-28T12:32:37.130Z,13.00
2023-04-28T12:35:23.804Z,13.00
2023-04-28T12:38:11.762Z,13.00
2023-04-28T12:40:57.462Z,13.10
2023-04-28T12:43:44.542Z,12.90
2023-04-28T12:46:31.634Z,12.60
2023-04-28T12:49:17.325Z,13.00
2023-04-28T12:52:03.534Z,13.10
2023-04-28T12:54:49.328Z,13.10
2023-04-28T12:57:38.950Z,12.90
2023-04-28T13:00:25.163Z,12.90
2023-04-28T13:03:10.900Z,13.10
2023-04-28T13:05:56.303Z,13.10
2023-04-28T13:08:41.839Z,13.20
2023-04-28T13:11:28.045Z,13.10
2023-04-28T13:14:13.121Z,13.10
2023-04-28T13:16:58.846Z,13.20
2023-04-28T13:19:44.238Z,13.20
2023-04-28T13:22:29.789Z,13.30
2023-04-28T13:25:15.230Z,13.30
2023-04-28T13:28:00.750Z,13.30
2023-04-28T13:30:46.268Z,13.30
2023-04-28T13:33:31.531Z,13.30
2023-04-28T13:36:17.085Z,13.20
2023-04-28T13:39:02.739Z,13.30
2023-04-28T13:41:49.508Z,13.20
2023-04-28T13:44:35.024Z,13.20
2023-04-28T13:47:20.358Z,13.30
2023-04-28T13:50:06.185Z,13.30
2023-04-28T13:52:51.902Z,13.30
2023-04-28T13:55:37.660Z,13.30
2023-04-28T13:58:23.227Z,13.50
2023-04-28T14:01:09.025Z,13.70
2023-04-28T14:03:54.847Z,13.60
2023-04-28T14:06:39.995Z,13.70
2023-04-28T14:09:25.609Z,13.60
2023-04-28T14:12:11.155Z,13.60
2023-04-28T14:14:56.958Z,13.50
2023-04-28T14:17:43.343Z,13.60
2023-04-28T14:20:29.115Z,13.50
2023-04-28T14:23:15.439Z,13.60
2023-04-28T14:26:00.647Z,13.60
2023-04-28T14:28:45.992Z,13.60
2023-04-28T14:31:31.802Z,13.60
2023-04-28T14:34:17.082Z,13.60
2023-04-28T14:37:02.441Z,13.70
2023-04-28T14:39:48.638Z,13.70
2023-04-28T14:42:38.656Z,13.80
2023-04-28T14:45:23.898Z,13.70
2023-04-28T14:48:10.597Z,13.80
2023-04-28T14:50:56.058Z,13.80
2023-04-28T14:53:42.044Z,14.00
2023-04-28T14:56:27.578Z,14.00
2023-04-28T14:59:12.589Z,14.00
2023-04-28T15:01:58.678Z,14.00
2023-04-28T15:04:44.684Z,14.00
2023-04-28T15:07:31.576Z,14.00
2023-04-28T15:10:17.815Z,14.00
2023-04-28T15:13:02.937Z,13.90
2023-04-28T15:15:48.891Z,13.90
2023-04-28T15:18:34.259Z,14.00
2023-04-28T15:21:19.729Z,14.00
2023-04-28T15:24:05.183Z,14.00
2023-04-28T15:26:50.607Z,14.10
2023-04-28T15:29:36.159Z,14.00
2023-04-28T15:32:21.522Z,14.00
2023-04-28T15:35:07.306Z,13.90
2023-04-28T15:37:53.252Z,13.90
2023-04-28T15:40:40.498Z,14.00
2023-04-28T15:43:26.360Z,14.10
2023-04-28T15:46:14.486Z,14.10
2023-04-28T15:48:59.931Z,14.20
2023-04-28T15:51:45.695Z,14.20
2023-04-28T15:54:30.915Z,14.30
2023-04-28T15:57:15.973Z,14.30
2023-04-28T16:00:01.940Z,14.30
2023-04-28T16:02:47.154Z,14.30
2023-04-28T16:05:32.480Z,14.40
2023-04-28T16:08:19.379Z,14.40
2023-04-28T16:11:05.305Z,14.40
2023-04-28T16:13:51.335Z,14.40
2023-04-28T16:16:36.708Z,14.50
2023-04-28T16:19:22.244Z,14.50
2023-04-28T16:22:07.215Z,14.40
2023-04-28T16:24:53.696Z,14.40
2023-04-28T16:27:40.499Z,14.40
2023-04-28T16:30:26.277Z,14.40
2023-04-28T16:33:11.799Z,14.40
2023-04-28T16:35:58.254Z,14.30
2023-04-28T16:38:45.739Z,14.30
2023-04-28T16:41:31.619Z,14.40
2023-04-28T16:44:17.039Z,14.40
2023-04-28T16:47:02.717Z,14.40
2023-04-28T16:49:48.292Z,14.30
2023-04-28T16:52:34.290Z,14.30
2023-04-28T16:55:20.040Z,14.30
2023-04-28T16:58:06.315Z,14.40
2023-04-28T17:00:52.389Z,14.40
2023-04-28T17:03:41.902Z,14.40
2023-04-28T17:06:28.038Z,14.40
2023-04-28T17:09:13.441Z,14.50
2023-04-28T17:11:59.090Z,14.50
2023-04-28T17:14:44.130Z,14.50
2023-04-28T17:17:29.900Z,14.40
2023-04-28T17:20:20.275Z,14.50
2023-04-28T17:23:06.027Z,14.50
2023-04-28T17:25:51.206Z,14.60
2023-04-28T17:28:36.710Z,14.50
2023-04-28T17:31:22.840Z,14.60
2023-04-28T17:34:08.704Z,14.70
2023-04-28T17:36:55.173Z,14.70
2023-04-28T17:39:40.743Z,14.60
2023-04-28T17:42:27.964Z,14.60
2023-04-28T17:45:13.524Z,14.60
2023-04-28T17:48:00.747Z,14.60
2023-04-28T17:50:46.488Z,14.60
2023-04-28T17:53:31.873Z,14.60
2023-04-28T17:56:17.731Z,14.50
2023-04-28T17:59:03.831Z,14.60
2023-04-28T18:01:48.992Z,14.70
2023-04-28T18:04:34.616Z,14.80
2023-04-28T18:07:19.901Z,14.70
2023-04-28T18:10:05.673Z,14.70
2023-04-28T18:12:53.572Z,14.80
2023-04-28T18:15:38.798Z,14.80
2023-04-28T18:18:24.610Z,14.70
2023-04-28T18:21:11.032Z,14.60
2023-04-28T18:23:56.464Z,14.60
2023-04-28T18:26:42.170Z,14.70
2023-04-28T18:29:27.257Z,14.70
2023-04-28T18:32:14.565Z,14.60
2023-04-28T18:35:00.685Z,14.70
2023-04-28T18:37:46.276Z,14.70
2023-04-28T18:40:37.533Z,14.60
2023-04-28T18:43:23.637Z,14.60
2023-04-28T18:46:09.462Z,14.60
2023-04-28T18:48:54.992Z,14.60
2023-04-28T18:51:40.285Z,14.60
2023-04-28T18:54:26.724Z,14.60
2023-04-28T18:57:12.780Z,14.60
2023-04-28T18:59:59.430Z,14.50
2023-04-28T19:02:45.219Z,14.60
2023-04-28T19:05:30.920Z,14.60
2023-04-28T19:08:16.435Z,14.60
2023-04-28T19:11:02.032Z,14.50
2023-04-28T19:13:47.781Z,14.50
2023-04-28T19:16:33.609Z,14.50
2023-04-28T19:19:19.580Z,14.50
2023-04-28T19:22:05.603Z,14.50
2023-04-28T19:24:50.803Z,14.50
2023-04-28T19:27:38.916Z,14.50
2023-04-28T19:30:24.355Z,14.40
2023-04-28T19:33:09.774Z,14.40
2023-04-28T19:35:55.152Z,14.40
2023-04-28T19:38:40.533Z,14.40
2023-04-28T19:41:26.081Z,14.50
2023-04-28T19:44:11.326Z,14.50
2023-04-28T19:46:56.711Z,14.50
2023-04-28T19:49:42.135Z,14.40
2023-04-28T19:52:28.039Z,14.40
2023-04-28T19:55:18.168Z,14.30
2023-04-28T19:58:04.011Z,14.30
2023-04-28T20:00:49.347Z,14.40
2023-04-28T20:03:35.956Z,14.40
2023-04-28T20:06:21.475Z,14.30
2023-04-28T20:09:06.594Z,14.30
2023-04-28T20:11:52.046Z,14.30
2023-04-28T20:14:37.546Z,14.20
2023-04-28T20:17:22.745Z,14.10
2023-04-28T20:20:08.507Z,14.10
2023-04-28T20:22:53.987Z,14.00
2023-04-28T20:25:39.644Z,14.00
2023-04-28T20:28:24.865Z,14.10
2023-04-28T20:31:10.631Z,14.00
2023-04-28T20:33:56.182Z,14.00
2023-04-28T20:36:42.825Z,14.00
2023-04-28T20:39:28.458Z,13.90
2023-04-28T20:42:13.943Z,13.90
2023-04-28T20:44:59.888Z,13.80
2023-04-28T20:47:45.433Z,13.80
2023-04-28T20:50:33.314Z,13.80
2023-04-28T20:53:18.776Z,13.80
2023-04-28T20:56:04.284Z,13.90
2023-04-28T20:58:49.750Z,13.80
2023-04-28T21:01:35.342Z,13.90
2023-04-28T21:04:21.169Z,13.90
2023-04-28T21:07:06.654Z,13.80
2023-04-28T21:09:52.348Z,13.80
2023-04-28T21:12:38.309Z,13.80
2023-04-28T21:15:24.302Z,13.90
2023-04-28T21:18:09.783Z,13.90
2023-04-28T21:20:56.632Z,13.90
2023-04-28T21:23:42.685Z,13.90
2023-04-28T21:26:27.851Z,13.90
2023-04-28T21:29:13.766Z,14.00
2023-04-28T21:31:58.958Z,13.90
2023-04-28T21:34:48.858Z,13.90
2023-04-28T21:37:34.366Z,13.90
2023-04-28T21:40:19.761Z,13.90
2023-04-28T21:43:05.966Z,13.90
2023-04-28T21:45:52.181Z,13.90
2023-04-28T21:48:38.560Z,14.00
2023-04-28T21:51:24.073Z,13.90
2023-04-28T21:54:09.595Z,13.90
2023-04-28T21:56:54.920Z,14.00
2023-04-28T21:59:40.303Z,14.00
2023-04-28T22:02:25.982Z,14.00
2023-04-28T22:05:11.754Z,14.00
2023-04-28T22:07:57.789Z,14.00
2023-04-28T22:10:45.702Z,14.00
2023-04-28T22:13:30.840Z,14.10
2023-04-28T22:16:16.496Z,14.10
2023-04-28T22:19:02.363Z,14.00
2023-04-28T22:21:48.105Z,14.10
2023-04-28T22:24:33.431Z,14.10
2023-04-28T22:27:18.665Z,14.10
2023-04-28T22:30:04.943Z,14.00
2023-04-28T22:32:50.558Z,14.00
2023-04-28T22:35:36.850Z,14.00
2023-04-28T22:38:22.087Z,14.00
2023-04-28T22:41:07.679Z,14.00
2023-04-28T22:43:53.361Z,14.00
2023-04-28T22:46:38.608Z,14.00
2023-04-28T22:49:28.378Z,14.00
2023-04-28T22:52:13.684Z,14.00
2023-04-28T22:54:59.426Z,14.00
2023-04-28T22:57:44.976Z,14.00
2023-04-28T23:00:30.138Z,14.10
2023-04-28T23:03:16.151Z,14.00
2023-04-28T23:06:01.470Z,14.00
2023-04-28T23:08:46.853Z,14.00
2023-04-28T23:11:32.107Z,14.10
2023-04-28T23:14:17.482Z,14.00
2023-04-28T23:17:02.952Z,14.10
2023-04-28T23:19:48.465Z,14.10
2023-04-28T23:22:33.810Z,14.10
2023-04-28T23:25:19.627Z,14.10
2023-04-28T23:28:05.196Z,14.10
2023-04-28T23:30:50.369Z,14.00
2023-04-28T23:33:35.560Z,13.90
2023-04-28T23:36:20.928Z,14.00
2023-04-28T23:39:06.393Z,14.10
2023-04-28T23:41:51.749Z,14.00
2023-04-28T23:44:37.113Z,14.10
2023-04-28T23:47:22.597Z,14.10
2023-04-28T23:50:09.656Z,13.90
2023-04-28T23:52:55.066Z,14.10
2023-04-28T23:55:40.388Z,14.10
2023-04-28T23:58:26.391Z,14.10
